Time;durP1;ratioP1;P1;durP2;ratioP2;P2;SDS_P1;SDS_P2;PMS_P1;PMS_P2;Temp;Humidity;BMP_temperature;BMP_pressure;BME280_temperature;BME280_humidity;BME280_pressure;Samples;Min_cycle;Max_cycle;Signal;HPM_P1;HPM_P2
2021/10/26 00:02:19;;;;;;;1999.90;999.90;;;;;;;5.17;50.71;101366.38;4970183;28;96862;-71
2021/10/26 00:04:48;;;;;;;1999.90;999.90;;;;;;;5.21;50.30;101355.13;4986192;28;97350;-70
2021/10/26 00:07:18;;;;;;;1999.90;999.90;;;;;;;5.59;49.25;101355.38;4988026;28;97625;-71
2021/10/26 00:09:45;;;;;;;1999.90;999.90;;;;;;;5.27;50.08;101355.44;4988128;28;96909;-71
2021/10/26 00:12:13;;;;;;;1999.90;999.90;;;;;;;5.16;50.41;101361.91;4987745;28;96678;-70
2021/10/26 00:14:41;;;;;;;1999.90;999.90;;;;;;;5.09;50.68;101363.34;4980215;28;97077;-73
2021/10/26 00:17:09;;;;;;;1999.90;999.90;;;;;;;5.07;50.77;101362.34;4985109;28;100453;-71
2021/10/26 00:19:37;;;;;;;1999.90;999.90;;;;;;;5.25;50.43;101366.78;4988813;28;97548;-72
2021/10/26 00:22:06;;;;;;;1999.90;999.90;;;;;;;5.56;50.28;101359.56;4985190;28;96903;-72
2021/10/26 00:24:34;;;;;;;1999.90;999.90;;;;;;;5.44;50.64;101364.22;4986243;28;97252;-73
2021/10/26 00:27:01;;;;;;;1999.90;999.90;;;;;;;5.74;49.95;101363.16;4987609;28;97533;-72
2021/10/26 00:29:29;;;;;;;1999.90;999.90;;;;;;;5.57;50.19;101357.03;4987004;28;97060;-71
2021/10/26 00:31:56;;;;;;;1999.90;999.90;;;;;;;5.60;49.88;101351.88;4982744;28;97320;-70
2021/10/26 00:34:24;;;;;;;1999.90;999.90;;;;;;;5.57;50.19;101356.13;4983221;28;97740;-72
2021/10/26 00:36:53;;;;;;;1999.90;999.90;;;;;;;5.66;49.81;101351.28;4987027;28;98820;-71
2021/10/26 00:39:22;;;;;;;1999.90;999.90;;;;;;;5.55;50.07;101360.41;4981646;28;96886;-70
2021/10/26 00:41:50;;;;;;;1999.90;999.90;;;;;;;5.62;49.99;101357.25;4983696;28;97042;-71
2021/10/26 00:44:18;;;;;;;1999.90;999.90;;;;;;;5.56;50.17;101355.19;4967467;28;99292;-71
2021/10/26 00:46:46;;;;;;;1999.90;999.90;;;;;;;5.68;49.70;101355.84;4969361;28;100375;-70
2021/10/26 00:49:14;;;;;;;1999.90;999.90;;;;;;;5.56;49.78;101347.28;4988029;28;96921;-70
2021/10/26 00:51:42;;;;;;;1999.90;999.90;;;;;;;5.53;50.13;101359.41;4968804;28;96839;-71
2021/10/26 00:54:10;;;;;;;1999.90;999.90;;;;;;;5.77;49.67;101361.56;4967378;28;100669;-72
2021/10/26 00:56:46;;;;;;;1999.90;999.90;;;;;;;5.71;49.59;101357.69;4964066;28;100530;-71
2021/10/26 00:59:14;;;;;;;1999.90;999.90;;;;;;;5.61;49.81;101364.25;4984525;28;96995;-71
2021/10/26 01:01:46;;;;;;;1999.90;999.90;;;;;;;5.64;50.04;101366.16;4965889;28;98070;-71
2021/10/26 01:04:15;;;;;;;1999.90;999.90;;;;;;;5.60;50.17;101367.72;4970866;28;99257;-72
2021/10/26 01:06:43;;;;;;;1999.90;999.90;;;;;;;5.71;49.72;101376.19;4964104;28;99735;-72
2021/10/26 01:09:11;;;;;;;1999.90;999.90;;;;;;;5.60;49.83;101369.44;4982649;28;97736;-71
2021/10/26 01:11:40;;;;;;;1999.90;999.90;;;;;;;5.72;50.45;101357.75;4969349;28;96758;-71
2021/10/26 01:14:10;;;;;;;1999.90;999.90;;;;;;;5.96;50.15;101363.34;4983461;28;97613;-72
2021/10/26 01:16:37;;;;;;;1999.90;999.90;;;;;;;5.63;50.86;101357.31;4968333;28;100846;-72
2021/10/26 01:19:05;;;;;;;1999.90;999.90;;;;;;;5.57;50.99;101367.59;4982108;28;97148;-70
2021/10/26 01:21:35;;;;;;;1999.90;999.90;;;;;;;6.00;50.08;101374.16;4970375;28;96780;-72
2021/10/26 01:24:04;;;;;;;1999.90;999.90;;;;;;;5.74;50.87;101366.69;4984079;28;99513;-72
2021/10/26 01:26:32;;;;;;;1999.90;999.90;;;;;;;6.27;49.76;101365.78;4980833;28;98583;-71
2021/10/26 01:29:00;;;;;;;1999.90;999.90;;;;;;;5.85;50.75;101375.16;4983739;28;97251;-70
2021/10/26 01:31:33;;;;;;;1999.90;999.90;;;;;;;5.87;50.75;101369.09;4983172;28;96858;-71
2021/10/26 01:34:28;;;;;;;1999.90;999.90;;;;;;;5.78;50.67;101376.56;4983294;28;100532;-70
2021/10/26 01:36:59;;;;;;;1999.90;999.90;;;;;;;5.79;50.77;101370.47;4984847;28;97434;-71
2021/10/26 01:39:27;;;;;;;1999.90;999.90;;;;;;;5.94;50.12;101365.91;4963384;28;97286;-72
2021/10/26 01:41:55;;;;;;;1999.90;999.90;;;;;;;5.88;50.70;101370.00;4985922;28;96830;-71
2021/10/26 01:44:23;;;;;;;1999.90;999.90;;;;;;;5.74;50.83;101371.97;4970404;28;99606;-71
2021/10/26 01:46:51;;;;;;;1999.90;999.90;;;;;;;5.74;50.70;101371.97;4991205;28;97161;-71
2021/10/26 01:49:22;;;;;;;1999.90;999.90;;;;;;;5.54;51.19;101372.69;4971340;28;97331;-70
2021/10/26 01:51:51;;;;;;;1999.90;999.90;;;;;;;5.51;51.42;101375.19;4983972;28;96844;-70
2021/10/26 01:54:20;;;;;;;1999.90;999.90;;;;;;;5.55;51.30;101374.53;4989967;28;97849;-71
2021/10/26 01:56:48;;;;;;;1999.90;999.90;;;;;;;5.49;51.57;101378.56;4972819;28;99418;-70
2021/10/26 01:59:26;;;;;;;1999.90;999.90;;;;;;;5.51;51.33;101371.63;4988293;28;97022;-71
2021/10/26 02:01:53;;;;;;;1999.90;999.90;;;;;;;5.51;51.51;101371.63;4968387;28;96886;-69
2021/10/26 02:04:32;;;;;;;1999.90;999.90;;;;;;;5.51;51.51;101377.81;4984323;28;98672;-70
2021/10/26 02:07:01;;;;;;;1999.90;999.90;;;;;;;5.48;51.63;101369.75;4969731;28;98460;-70
2021/10/26 02:09:33;;;;;;;1999.90;999.90;;;;;;;5.45;51.69;101366.94;4971653;28;98079;-71
2021/10/26 02:12:02;;;;;;;1999.90;999.90;;;;;;;5.44;51.58;101366.88;4968983;28;97378;-71
2021/10/26 02:14:29;;;;;;;1999.90;999.90;;;;;;;5.48;51.64;101363.56;4983270;28;97566;-71
2021/10/26 02:16:57;;;;;;;1999.90;999.90;;;;;;;5.75;51.38;101357.94;4966145;28;100504;-71
2021/10/26 02:19:25;;;;;;;1999.90;999.90;;;;;;;5.60;52.03;101357.16;4980137;28;97123;-70
2021/10/26 02:21:54;;;;;;;1999.90;999.90;;;;;;;5.65;51.88;101349.50;4986356;28;96980;-71
2021/10/26 02:24:22;;;;;;;1999.90;999.90;;;;;;;5.62;51.71;101360.78;4986067;28;99962;-72
2021/10/26 02:26:51;;;;;;;1999.90;999.90;;;;;;;5.57;51.77;101367.59;4964087;28;100734;-72
2021/10/26 02:29:20;;;;;;;1999.90;999.90;;;;;;;5.57;51.80;101364.94;4990140;28;98170;-71
2021/10/26 02:31:53;;;;;;;1999.90;999.90;;;;;;;5.54;52.17;101367.41;4973325;28;96917;-72
2021/10/26 02:34:21;;;;;;;1999.90;999.90;;;;;;;5.51;51.94;101361.06;4991392;28;99064;-72
2021/10/26 02:36:49;;;;;;;1999.90;999.90;;;;;;;5.48;52.35;101371.50;4965594;28;99436;-72
2021/10/26 02:39:18;;;;;;;1999.90;999.90;;;;;;;5.54;51.98;101367.41;4966739;28;97158;-70
2021/10/26 02:41:45;;;;;;;1999.90;999.90;;;;;;;5.53;52.21;101368.25;4967276;28;96862;-71
2021/10/26 02:44:14;;;;;;;1999.90;999.90;;;;;;;5.88;51.85;101365.66;4968224;28;99203;-72
2021/10/26 02:46:42;;;;;;;1999.90;999.90;;;;;;;5.73;52.20;101361.31;5003452;28;98245;-70
2021/10/26 02:49:10;;;;;;;1999.90;999.90;;;;;;;5.65;52.59;101360.94;4987451;28;96729;-72
2021/10/26 02:51:38;;;;;;;1999.90;999.90;;;;;;;5.66;52.40;101360.13;4967071;28;97167;-72
2021/10/26 02:54:06;;;;;;;1999.90;999.90;;;;;;;5.65;52.17;101362.69;4967051;28;99588;-70
2021/10/26 02:56:34;;;;;;;1999.90;999.90;;;;;;;5.68;52.15;101371.69;4967633;28;99251;-70
2021/10/26 02:59:02;;;;;;;1999.90;999.90;;;;;;;5.64;52.36;101368.78;4985891;28;96968;-70
2021/10/26 03:01:33;;;;;;;1999.90;999.90;;;;;;;5.68;52.28;101366.41;4962252;28;96814;-72
2021/10/26 03:04:01;;;;;;;1999.90;999.90;;;;;;;5.66;52.38;101361.84;4969316;28;99616;-70
2021/10/26 03:06:29;;;;;;;1999.90;999.90;;;;;;;5.73;52.04;101361.31;4984631;28;99094;-70
2021/10/26 03:08:57;;;;;;;1999.90;999.90;;;;;;;5.72;52.12;101368.31;4981186;28;97480;-72
2021/10/26 03:11:31;;;;;;;1999.90;999.90;;;;;;;5.71;52.20;101368.25;4967692;28;97458;-72
2021/10/26 03:13:59;;;;;;;1999.90;999.90;;;;;;;5.67;51.87;101364.56;4968595;28;101014;-70
2021/10/26 03:16:28;;;;;;;1999.90;999.90;;;;;;;5.70;52.17;101372.66;4965191;28;100990;-72
2021/10/26 03:18:57;;;;;;;1999.90;999.90;;;;;;;5.72;52.09;101360.41;4966421;28;97622;-72
2021/10/26 03:21:25;;;;;;;1999.90;999.90;;;;;;;5.72;51.87;101378.00;4977603;28;97355;-71
2021/10/26 03:23:52;;;;;;;1999.90;999.90;;;;;;;5.72;51.91;101378.00;4984613;28;98775;-70
2021/10/26 03:26:20;;;;;;;1999.90;999.90;;;;;;;5.74;51.83;101376.34;4962712;28;98816;-72
2021/10/26 03:28:48;;;;;;;1999.90;999.90;;;;;;;5.76;52.25;101377.31;4962018;28;96744;-72
2021/10/26 03:31:17;;;;;;;1999.90;999.90;;;;;;;6.05;51.88;101385.84;4969206;28;96794;-72
2021/10/26 03:34:06;;;;;;;1999.90;999.90;;;;;;;5.93;52.23;101374.69;4977076;28;98808;-72
2021/10/26 03:36:34;;;;;;;1999.90;999.90;;;;;;;5.96;51.99;101369.53;4967756;28;99140;-71
2021/10/26 03:39:02;;;;;;;1999.90;999.90;;;;;;;5.98;51.95;101373.16;4987298;28;97502;-72
2021/10/26 03:41:30;;;;;;;1999.90;999.90;;;;;;;5.99;52.13;101380.28;4967983;28;97440;-72
2021/10/26 03:44:01;;;;;;;1999.90;999.90;;;;;;;6.05;51.85;101383.19;4972095;28;100768;-72
2021/10/26 03:46:29;;;;;;;1999.90;999.90;;;;;;;5.96;51.98;101390.69;4972249;28;99439;-71
2021/10/26 03:48:57;;;;;;;1999.90;999.90;;;;;;;5.99;51.88;101395.22;4970931;28;96941;-69
2021/10/26 03:51:30;;;;;;;1999.90;999.90;;;;;;;5.97;52.39;101392.50;4968522;28;97123;-71
2021/10/26 03:53:58;;;;;;;1999.90;999.90;;;;;;;5.97;52.22;101392.50;4969387;28;100762;-70
2021/10/26 03:56:26;;;;;;;1999.90;999.90;;;;;;;5.93;52.14;101384.34;4988533;28;97851;-70
2021/10/26 03:58:58;;;;;;;1999.90;999.90;;;;;;;6.01;52.10;101399.72;4987289;28;96854;-70
2021/10/26 04:01:25;;;;;;;1999.90;999.90;;;;;;;6.08;51.94;101391.31;4982943;28;96862;-69
2021/10/26 04:03:54;;;;;;;1999.90;999.90;;;;;;;6.11;52.14;101382.59;4994690;28;97167;-70
2021/10/26 04:06:24;;;;;;;1999.90;999.90;;;;;;;6.16;52.00;101389.91;4969551;28;99125;-70
2021/10/26 04:08:57;;;;;;;1999.90;999.90;;;;;;;6.13;51.67;101397.72;4984931;28;97548;-70
2021/10/26 04:11:26;;;;;;;1999.90;999.90;;;;;;;6.06;52.39;101405.25;4970004;28;97269;-69
2021/10/26 04:13:57;;;;;;;1999.90;999.90;;;;;;;6.09;51.88;101398.38;4972991;28;99298;-70
2021/10/26 04:16:25;;;;;;;1999.90;999.90;;;;;;;6.15;51.74;101403.97;4972156;28;99061;-70
2021/10/26 04:18:53;;;;;;;1999.90;999.90;;;;;;;6.16;51.78;101400.47;4968458;28;96788;-70
2021/10/26 04:21:24;;;;;;;1999.90;999.90;;;;;;;6.06;51.93;101392.03;4971280;28;96998;-69
2021/10/26 04:23:51;;;;;;;1999.90;999.90;;;;;;;6.10;52.29;101400.19;4973511;28;101298;-70
2021/10/26 04:26:22;;;;;;;1999.90;999.90;;;;;;;6.09;52.11;101401.03;4970824;28;99090;-72
2021/10/26 04:28:49;;;;;;;1999.90;999.90;;;;;;;6.03;52.22;101413.91;4981689;28;96680;-71
2021/10/26 04:31:18;;;;;;;1999.90;999.90;;;;;;;6.02;52.23;101411.22;4986112;28;96795;-70
2021/10/26 04:33:47;;;;;;;1999.90;999.90;;;;;;;5.99;52.16;101416.34;4987322;28;96949;-72
2021/10/26 04:36:15;;;;;;;1999.90;999.90;;;;;;;5.97;52.44;101416.28;4970793;28;99253;-72
2021/10/26 04:38:46;;;;;;;1999.90;999.90;;;;;;;5.97;52.15;101416.28;4970448;28;97223;-70
2021/10/26 04:41:14;;;;;;;1999.90;999.90;;;;;;;5.96;52.40;101417.09;4966200;28;96803;-72
2021/10/26 04:43:43;;;;;;;1999.90;999.90;;;;;;;5.96;52.75;101414.44;4969853;28;101703;-69
2021/10/26 04:46:14;;;;;;;1999.90;999.90;;;;;;;5.96;52.34;101417.09;4984787;28;97468;-69
2021/10/26 04:48:43;;;;;;;1999.90;999.90;;;;;;;6.03;52.20;101424.47;4989083;28;97612;-70
2021/10/26 04:51:11;;;;;;;1999.90;999.90;;;;;;;6.02;52.22;101420.06;4969290;28;97092;-72
2021/10/26 04:53:41;;;;;;;1999.90;999.90;;;;;;;5.99;52.49;101416.34;4967037;28;99854;-69
2021/10/26 04:56:09;;;;;;;1999.90;999.90;;;;;;;5.99;52.57;101419.91;4986036;28;99659;-70
2021/10/26 04:58:59;;;;;;;1999.90;999.90;;;;;;;5.98;52.55;101420.72;4983111;28;99877;-69
2021/10/26 05:01:27;;;;;;;1999.90;999.90;;;;;;;6.02;52.50;101424.41;4985006;28;96927;-70
2021/10/26 05:03:55;;;;;;;1999.90;999.90;;;;;;;6.10;52.27;101416.03;4971772;28;99132;-69
2021/10/26 05:06:23;;;;;;;1999.90;999.90;;;;;;;6.43;52.21;101415.91;4967242;28;100691;-72
2021/10/26 05:08:53;;;;;;;1999.90;999.90;;;;;;;6.30;52.70;101418.78;4983514;28;96942;-72
2021/10/26 05:11:23;;;;;;;1999.90;999.90;;;;;;;6.25;52.54;101423.78;4967711;28;97260;-71
2021/10/26 05:13:52;;;;;;;1999.90;999.90;;;;;;;6.22;52.61;101418.38;4982413;28;96977;-71
2021/10/26 05:16:27;;;;;;;1999.90;999.90;;;;;;;6.19;52.64;101419.16;4983554;28;101018;-72
2021/10/26 05:19:30;;;;;;;1999.90;999.90;;;;;;;6.20;52.38;101417.38;4947174;28;97068;-69
2021/10/26 05:22:18;;;;;;;1999.90;999.90;;;;;;;6.20;52.59;101428.88;4980192;28;97020;-73
2021/10/26 05:25:09;;;;;;;1999.90;999.90;;;;;;;6.19;52.78;101427.09;4988158;28;99674;-70
2021/10/26 05:27:57;;;;;;;1999.90;999.90;;;;;;;6.15;52.81;101427.75;4970058;28;100515;-70
2021/10/26 05:30:24;;;;;;;1999.90;999.90;;;;;;;6.20;52.35;101427.97;4980999;28;97505;-68
2021/10/26 05:32:54;;;;;;;1999.90;999.90;;;;;;;6.19;52.37;101429.72;4983067;28;98704;-68
2021/10/26 05:35:22;;;;;;;1999.90;999.90;;;;;;;6.23;52.35;101429.00;4984981;28;97495;-69
2021/10/26 05:37:50;;;;;;;1999.90;999.90;;;;;;;6.25;52.34;101432.63;4986219;28;97795;-69
2021/10/26 05:40:18;;;;;;;1999.90;999.90;;;;;;;6.29;52.63;101424.91;4983974;28;98227;-69
2021/10/26 05:42:46;;;;;;;1999.90;999.90;;;;;;;6.59;52.72;101426.38;4980352;28;96948;-70
2021/10/26 05:45:14;;;;;;;1999.90;999.90;;;;;;;6.69;51.98;101432.16;4986645;28;99527;-69
2021/10/26 05:47:41;;;;;;;1999.90;999.90;;;;;;;6.71;51.54;101429.56;4987060;28;100406;-70
2021/10/26 05:50:10;;;;;;;1999.90;999.90;;;;;;;6.72;51.82;101421.75;4964943;28;96986;-69
2021/10/26 05:52:38;;;;;;;1999.90;999.90;;;;;;;6.43;52.39;101431.75;4985842;28;97179;-70
2021/10/26 05:55:07;;;;;;;1999.90;999.90;;;;;;;6.67;51.96;101430.28;4966249;28;99554;-70
2021/10/26 05:57:36;;;;;;;1999.90;999.90;;;;;;;6.64;51.74;101430.13;4965452;28;97651;-69
2021/10/26 06:00:05;;;;;;;1999.90;999.90;;;;;;;6.49;52.40;101430.31;4974816;28;96852;-70
2021/10/26 06:02:38;;;;;;;1999.90;999.90;;;;;;;6.61;52.12;101428.25;4984594;28;96783;-70
2021/10/26 06:05:06;;;;;;;1999.90;999.90;;;;;;;6.61;51.83;101435.28;4982509;28;98970;-70
2021/10/26 06:07:36;;;;;;;1999.90;999.90;;;;;;;6.62;51.92;101437.06;4964620;28;101977;-70
2021/10/26 06:10:04;;;;;;;1999.90;999.90;;;;;;;6.63;52.09;101436.25;4979895;28;97995;-70
2021/10/26 06:12:32;;;;;;;1999.90;999.90;;;;;;;6.70;52.05;101446.28;4984752;28;96977;-70
2021/10/26 06:15:00;;;;;;;1999.90;999.90;;;;;;;6.64;52.00;101456.56;4966223;28;99273;-71
2021/10/26 06:17:29;;;;;;;1999.90;999.90;;;;;;;6.56;52.24;101466.78;4978635;28;99340;-70
2021/10/26 06:19:57;;;;;;;1999.90;999.90;;;;;;;6.53;52.37;101473.66;4964423;28;97224;-69
2021/10/26 06:22:25;;;;;;;1999.90;999.90;;;;;;;6.68;51.95;101461.19;4981492;28;96936;-70
2021/10/26 06:24:54;;;;;;;1999.90;999.90;;;;;;;6.85;51.56;101474.34;4965191;28;99792;-70
2021/10/26 06:27:22;;;;;;;1999.90;999.90;;;;;;;6.74;51.69;101472.97;4981879;28;97018;-70
2021/10/26 06:29:55;;;;;;;1999.90;999.90;;;;;;;6.70;51.71;101475.38;4965378;28;96861;-70
2021/10/26 06:32:40;;;;;;;1999.90;999.90;;;;;;;6.69;52.00;101478.88;4966680;28;98987;-70
2021/10/26 06:35:29;;;;;;;1999.90;999.90;;;;;;;6.73;52.00;101486.09;4983878;28;97974;-70
2021/10/26 06:37:57;;;;;;;1999.90;999.90;;;;;;;6.87;51.53;101479.75;4978553;28;97079;-70
2021/10/26 06:40:29;;;;;;;1999.90;999.90;;;;;;;6.85;51.94;101482.28;4961668;28;97971;-70
2021/10/26 06:43:15;;;;;;;1999.90;999.90;;;;;;;6.74;52.24;101490.56;4975146;28;99246;-70
2021/10/26 06:46:02;;;;;;;1999.90;999.90;;;;;;;6.74;51.91;101495.88;4988533;28;97632;-71
2021/10/26 06:48:48;;;;;;;1999.90;999.90;;;;;;;6.97;51.42;101498.75;4980831;28;99246;-72
2021/10/26 06:51:34;;;;;;;1999.90;999.90;;;;;;;6.75;51.70;101503.88;4979116;28;98314;-69
2021/10/26 06:54:37;;;;;;;1999.90;999.90;;;;;;;6.72;51.97;101498.44;4976802;28;98424;-70
2021/10/26 06:57:26;;;;;;;1999.90;999.90;;;;;;;6.71;52.39;101506.28;4974930;28;98919;-71
2021/10/26 07:00:22;;;;;;;1999.90;999.90;;;;;;;6.75;52.28;101510.88;4964575;28;97611;-71
2021/10/26 07:03:09;;;;;;;1999.90;999.90;;;;;;;6.77;51.82;101503.94;5003457;28;97277;-70
2021/10/26 07:05:55;;;;;;;1999.90;999.90;;;;;;;6.86;51.60;101499.09;4981678;28;97998;-69
2021/10/26 07:08:39;;;;;;;1999.90;999.90;;;;;;;6.75;52.44;101506.50;4979567;28;97498;-72
2021/10/26 07:11:36;;;;;;;1999.90;999.90;;;;;;;6.75;52.29;101505.59;4986515;28;99163;-70
2021/10/26 07:14:11;;;;;;;1999.90;999.90;;;;;;;6.79;52.15;101502.28;4983581;28;97408;-70
2021/10/26 07:16:45;;;;;;;1999.90;999.90;;;;;;;6.82;52.12;101511.25;4987808;28;97276;-70
2021/10/26 07:19:16;;;;;;;1999.90;999.90;;;;;;;6.93;52.15;101510.03;5006375;28;97671;-69
2021/10/26 07:22:07;;;;;;;1999.90;999.90;;;;;;;6.99;51.63;101510.34;4977939;28;100870;-70
2021/10/26 07:24:57;;;;;;;1999.90;999.90;;;;;;;7.03;51.77;101509.66;4985047;28;97211;-71
2021/10/26 07:27:27;;;;;;;1999.90;999.90;;;;;;;6.91;52.14;101513.41;4982116;28;98237;-70
2021/10/26 07:29:56;;;;;;;1999.90;999.90;;;;;;;6.92;52.09;101510.88;4969841;28;99814;-71
2021/10/26 07:32:23;;;;;;;1999.90;999.90;;;;;;;7.31;52.04;101511.78;4963010;28;99338;-69
2021/10/26 07:34:52;;;;;;;1999.90;999.90;;;;;;;7.12;52.35;101511.81;4987967;28;99145;-70
2021/10/26 07:37:23;;;;;;;1999.90;999.90;;;;;;;7.08;52.50;101512.50;4968285;28;96792;-70
2021/10/26 07:40:04;;;;;;;1999.90;999.90;;;;;;;7.19;52.44;101511.25;4981914;28;97724;-71
2021/10/26 07:42:41;;;;;;;1999.90;999.90;;;;;;;7.11;52.52;101510.88;4982837;28;98930;-70
2021/10/26 07:45:45;;;;;;;1999.90;999.90;;;;;;;7.13;52.53;101511.88;4985403;28;96884;-70
2021/10/26 07:48:13;;;;;;;1999.90;999.90;;;;;;;7.14;52.56;101518.06;4986835;28;97689;-72
2021/10/26 07:50:42;;;;;;;1999.90;999.90;;;;;;;7.15;52.31;101530.47;4984667;28;97551;-70
2021/10/26 07:53:13;;;;;;;1999.90;999.90;;;;;;;7.18;52.34;101520.91;4966460;28;97196;-69
2021/10/26 07:55:58;;;;;;;1999.90;999.90;;;;;;;7.21;52.39;101521.09;4964732;28;97985;-70
2021/10/26 07:58:27;;;;;;;1999.90;999.90;;;;;;;7.25;52.23;101532.72;4966519;28;97884;-72
2021/10/26 08:00:59;;;;;;;1999.90;999.90;;;;;;;7.26;52.15;101529.22;4965142;28;100644;-71
2021/10/26 08:03:47;;;;;;;1999.90;999.90;;;;;;;7.23;52.62;101524.72;4983071;28;98980;-69
2021/10/26 08:06:15;;;;;;;1999.90;999.90;;;;;;;7.20;52.27;101542.16;4958933;28;98315;-69
2021/10/26 08:08:43;;;;;;;1999.90;999.90;;;;;;;7.59;51.47;101538.75;4978940;28;98081;-70
2021/10/26 08:11:14;;;;;;;1999.90;999.90;;;;;;;7.54;51.52;101535.00;4975765;28;98643;-71
2021/10/26 08:13:43;;;;;;;1999.90;999.90;;;;;;;7.56;51.80;101535.97;4978858;28;98044;-72
2021/10/26 08:16:13;;;;;;;1999.90;999.90;;;;;;;7.47;51.75;101535.56;4976180;28;97889;-70
2021/10/26 08:18:42;;;;;;;1999.90;999.90;;;;;;;7.46;51.79;101536.38;4972337;28;99057;-69
2021/10/26 08:21:12;;;;;;;1999.90;999.90;;;;;;;7.41;52.33;101535.25;4964041;28;99677;-70
2021/10/26 08:23:43;;;;;;;1999.90;999.90;;;;;;;7.42;52.08;101529.13;4958446;28;98748;-69
2021/10/26 08:26:16;;;;;;;1999.90;999.90;;;;;;;7.39;52.04;101525.38;4974940;28;97744;-70
2021/10/26 08:28:44;;;;;;;1999.90;999.90;;;;;;;7.43;52.22;101528.31;5002843;28;97050;-70
2021/10/26 08:31:19;;;;;;;1999.90;999.90;;;;;;;7.39;52.58;101536.91;4962572;28;99578;-69
2021/10/26 08:34:09;;;;;;;1999.90;999.90;;;;;;;7.76;51.38;101532.47;4962750;28;99395;-70
2021/10/26 08:36:37;;;;;;;1999.90;999.90;;;;;;;7.93;51.03;101535.88;4962658;28;98299;-70
2021/10/26 08:39:06;;;;;;;1999.90;999.90;;;;;;;7.49;52.01;101538.28;4965549;28;97446;-69
2021/10/26 08:41:36;;;;;;;1999.90;999.90;;;;;;;7.47;52.49;101540.84;4959153;28;100614;-70
2021/10/26 08:44:05;;;;;;;1999.90;999.90;;;;;;;7.49;52.50;101539.16;4978387;28;101202;-68
2021/10/26 08:46:35;;;;;;;1999.90;999.90;;;;;;;7.67;52.85;101534.72;4970420;28;97232;-73
2021/10/26 08:49:03;;;;;;;1999.90;999.90;;;;;;;7.59;52.81;101535.19;4978072;28;97820;-73
2021/10/26 08:51:30;;;;;;;1999.90;999.90;;;;;;;7.62;52.78;101530.91;4974617;28;98828;-72
2021/10/26 08:53:58;;;;;;;1999.90;999.90;;;;;;;7.64;52.97;101523.97;4981002;28;102340;-71
2021/10/26 08:56:29;;;;;;;1999.90;999.90;;;;;;;7.66;53.00;101532.88;4980809;28;97355;-73
2021/10/26 08:59:17;;;;;;;1999.90;999.90;;;;;;;7.67;53.11;101539.09;4977989;28;96793;-71
2021/10/26 09:01:55;;;;;;;1999.90;999.90;;;;;;;7.72;52.91;101535.81;4992988;28;98537;-72
2021/10/26 09:04:30;;;;;;;1999.90;999.90;;;;;;;7.78;52.97;101537.81;4963055;28;99319;-72
2021/10/26 09:07:04;;;;;;;1999.90;999.90;;;;;;;7.82;52.56;101530.06;4977735;28;97245;-70
2021/10/26 09:09:34;;;;;;;1999.90;999.90;;;;;;;7.88;52.33;101535.66;4976255;28;96796;-72
2021/10/26 09:18:38;;;;;;;1999.90;999.90;;;;;;;8.36;51.32;101535.94;4982126;28;97653;-73
2021/10/26 09:21:29;;;;;;;1999.90;999.90;;;;;;;8.35;51.38;101536.78;4963162;28;98236;-72
2021/10/26 09:24:02;;;;;;;1999.90;999.90;;;;;;;8.40;51.25;101521.97;4975549;28;98708;-72
2021/10/26 09:26:45;;;;;;;1999.90;999.90;;;;;;;8.58;51.49;101525.41;4961220;28;98025;-72
2021/10/26 09:29:13;;;;;;;1999.90;999.90;;;;;;;8.55;51.41;101531.47;4978896;28;97282;-71
2021/10/26 09:31:44;;;;;;;1999.90;999.90;;;;;;;8.54;51.71;101534.06;4989637;28;98393;-73
2021/10/26 09:34:16;;;;;;;1999.90;999.90;;;;;;;8.91;51.19;101518.81;4974416;28;98272;-73
2021/10/26 09:36:45;;;;;;;1999.90;999.90;;;;;;;9.11;51.19;101529.38;4959781;28;99207;-72
2021/10/26 09:39:19;;;;;;;1999.90;999.90;;;;;;;9.07;51.33;101526.53;4978335;28;97923;-72
2021/10/26 09:42:04;;;;;;;1999.90;999.90;;;;;;;8.92;51.86;101541.84;4975848;28;97247;-72
2021/10/26 09:44:35;;;;;;;1999.90;999.90;;;;;;;8.88;51.72;101539.91;4975946;28;97719;-72
2021/10/26 09:47:06;;;;;;;1999.90;999.90;;;;;;;8.86;51.68;101552.22;4973226;28;98420;-72
2021/10/26 09:49:38;;;;;;;1999.90;999.90;;;;;;;8.68;52.37;101547.06;4975081;28;99077;-73
2021/10/26 09:52:14;;;;;;;1999.90;999.90;;;;;;;8.69;52.32;101551.53;4979878;28;96823;-71
2021/10/26 09:54:43;;;;;;;1999.90;999.90;;;;;;;8.67;52.40;101552.31;4979357;28;99260;-72
2021/10/26 09:57:13;;;;;;;1999.90;999.90;;;;;;;8.69;52.25;101554.19;4978896;28;97661;-73
2021/10/26 09:59:52;;;;;;;1999.90;999.90;;;;;;;8.66;52.90;101553.16;4978645;28;97299;-72
2021/10/26 10:02:22;;;;;;;1999.90;999.90;;;;;;;8.71;52.47;101575.47;4973500;28;97215;-73
2021/10/26 10:05:08;;;;;;;1999.90;999.90;;;;;;;8.71;52.25;101556.91;4974280;28;97649;-73
2021/10/26 10:07:37;;;;;;;1999.90;999.90;;;;;;;8.75;52.21;101559.72;4978556;28;101030;-72
2021/10/26 10:10:09;;;;;;;1999.90;999.90;;;;;;;8.76;52.25;101553.59;4981277;28;97223;-73
2021/10/26 10:12:38;;;;;;;1999.90;999.90;;;;;;;8.75;52.21;101558.84;4965536;28;96877;-72
2021/10/26 10:15:07;;;;;;;1999.90;999.90;;;;;;;8.77;52.11;101566.00;4982480;28;98523;-74
2021/10/26 10:17:36;;;;;;;1999.90;999.90;;;;;;;8.83;52.13;101560.97;4963286;28;99787;-71
2021/10/26 10:20:08;;;;;;;1999.90;999.90;;;;;;;8.84;52.03;101556.56;4981041;28;97864;-73
2021/10/26 10:22:38;;;;;;;1999.90;999.90;;;;;;;8.89;52.01;101563.88;4981243;28;97791;-71
2021/10/26 10:25:08;;;;;;;1999.90;999.90;;;;;;;8.94;51.95;101566.69;4984839;28;99812;-72
2021/10/26 10:27:37;;;;;;;1999.90;999.90;;;;;;;8.96;52.06;101562.34;4981947;28;99619;-70
2021/10/26 10:30:09;;;;;;;1999.90;999.90;;;;;;;8.98;51.89;101566.91;4966455;28;97359;-73
2021/10/26 10:32:38;;;;;;;1999.90;999.90;;;;;;;9.01;51.89;101567.00;4965483;28;97455;-72
2021/10/26 10:35:12;;;;;;;1999.90;999.90;;;;;;;9.04;51.97;101555.63;4982310;28;99017;-72
2021/10/26 10:37:42;;;;;;;1999.90;999.90;;;;;;;9.13;51.76;101553.31;4974981;28;100625;-73
2021/10/26 10:40:11;;;;;;;1999.90;999.90;;;;;;;9.15;51.59;101564.91;4980556;28;97110;-71
2021/10/26 10:42:45;;;;;;;1999.90;999.90;;;;;;;9.21;51.56;101557.16;4982145;28;97602;-71
2021/10/26 10:45:23;;;;;;;1999.90;999.90;;;;;;;9.21;51.48;101559.81;4979562;28;99232;-71
2021/10/26 10:47:51;;;;;;;1999.90;999.90;;;;;;;9.36;51.29;101559.50;4965008;28;99679;-73
2021/10/26 10:50:42;;;;;;;1999.90;999.90;;;;;;;9.80;50.02;101552.41;4965758;28;97531;-70
2021/10/26 10:53:13;;;;;;;1999.90;999.90;;;;;;;9.87;49.76;101558.81;4980860;28;97303;-71
2021/10/26 10:55:44;;;;;;;1999.90;999.90;;;;;;;9.91;49.61;101551.03;4981406;28;98788;-73
2021/10/26 10:58:29;;;;;;;1999.90;999.90;;;;;;;9.99;49.55;101546.00;4981441;28;101356;-73
2021/10/26 11:01:23;;;;;;;1999.90;999.90;;;;;;;10.02;49.59;101549.66;4983431;28;98030;-73
2021/10/26 11:03:53;;;;;;;1999.90;999.90;;;;;;;10.09;49.38;101529.50;4983215;28;97428;-72
2021/10/26 11:06:55;;;;;;;1999.90;999.90;;;;;;;9.95;48.46;101547.63;4980686;28;100577;-73
2021/10/26 11:09:48;;;;;;;1999.90;999.90;;;;;;;10.11;48.66;101546.41;4982842;28;99173;-72
2021/10/26 11:12:30;;;;;;;1999.90;999.90;;;;;;;10.12;49.23;101532.25;4980464;28;97795;-73
2021/10/26 11:15:00;;;;;;;1999.90;999.90;;;;;;;9.91;49.82;101539.47;4980597;28;96984;-74
2021/10/26 11:17:59;;;;;;;1999.90;999.90;;;;;;;9.90;49.11;101543.00;4979738;28;98607;-73
2021/10/26 11:20:51;;;;;;;1999.90;999.90;;;;;;;9.90;49.43;101538.56;4980007;28;98792;-73
2021/10/26 11:23:38;;;;;;;1999.90;999.90;;;;;;;9.94;49.27;101529.84;4979797;28;97271;-73